Time;durP1;ratioP1;P1;durP2;ratioP2;P2;SDS_P1;SDS_P2;PMS_P1;PMS_P2;Temp;Humidity;BMP_temperature;BMP_pressure;BME280_temperature;BME280_humidity;BME280_pressure;Samples;Min_cycle;Max_cycle;Signal;HPM_P1;HPM_P2
2023/12/10 00:00:56;;;;;;;0.10;0.10;;;;;;;;;;5030932;28;20575;-65
2023/12/10 00:03:22;;;;;;;0.20;0.20;;;;;;;;;;5030558;28;20065;-65
2023/12/10 00:05:47;;;;;;;0.60;0.60;;;;;;;;;;5029538;28;20792;-65
2023/12/10 00:08:12;;;;;;;0.33;0.30;;;;;;;;;;5032912;28;20029;-65
2023/12/10 00:10:38;;;;;;;0.30;0.30;;;;;;;;;;5031862;28;20040;-65
2023/12/10 00:13:03;;;;;;;2.70;1.07;;;;;;;;;;5032705;28;20079;-65
2023/12/10 00:15:28;;;;;;;0.10;0.10;;;;;;;;;;5031675;28;20615;-64
2023/12/10 00:17:54;;;;;;;0.40;0.40;;;;;;;;;;5028258;28;20045;-64
2023/12/10 00:20:19;;;;;;;0.30;0.30;;;;;;;;;;5030724;28;20117;-64
2023/12/10 00:22:46;;;;;;;0.20;0.20;;;;;;;;;;5029626;28;20822;-64
2023/12/10 00:25:11;;;;;;;1.07;0.83;;;;;;;;;;5032559;28;20432;-67
2023/12/10 00:27:36;;;;;;;4.10;1.60;;;;;;;;;;5030138;28;20116;-65
2023/12/10 00:30:03;;;;;;;1.10;0.37;;;;;;;;;;5032430;28;20060;-65
2023/12/10 00:32:28;;;;;;;23.20;2.87;;;;;;;;;;5030804;28;20362;-65
2023/12/10 00:34:53;;;;;;;16.57;2.27;;;;;;;;;;5029500;28;20043;-65
2023/12/10 00:37:18;;;;;;;24.93;3.30;;;;;;;;;;5033197;28;20037;-65
2023/12/10 00:39:44;;;;;;;19.73;3.47;;;;;;;;;;5028447;28;20037;-66
2023/12/10 00:42:09;;;;;;;17.13;2.27;;;;;;;;;;5032494;28;20040;-65
2023/12/10 00:44:34;;;;;;;21.73;2.80;;;;;;;;;;5031596;28;20655;-65
2023/12/10 00:46:59;;;;;;;15.60;2.80;;;;;;;;;;5028521;28;20076;-67
2023/12/10 00:49:25;;;;;;;18.23;3.17;;;;;;;;;;5034811;28;20026;-66
2023/12/10 00:51:50;;;;;;;16.03;2.47;;;;;;;;;;5033372;28;20059;-67
2023/12/10 00:54:15;;;;;;;19.50;2.80;;;;;;;;;;5031904;28;20029;-66
2023/12/10 00:56:41;;;;;;;15.83;2.33;;;;;;;;;;5026567;28;20296;-67
2023/12/10 00:59:07;;;;;;;12.57;2.20;;;;;;;;;;5036416;28;20478;-67
2023/12/10 01:01:32;;;;;;;16.03;2.77;;;;;;;;;;5029727;28;20048;-67
2023/12/10 01:03:57;;;;;;;14.90;2.83;;;;;;;;;;5030127;28;20041;-66
2023/12/10 01:06:23;;;;;;;20.90;2.63;;;;;;;;;;5026288;28;20117;-67
2023/12/10 01:08:48;;;;;;;19.03;2.40;;;;;;;;;;5029261;28;20021;-67
2023/12/10 01:11:14;;;;;;;20.93;2.67;;;;;;;;;;5029417;28;20199;-67
2023/12/10 01:13:40;;;;;;;29.00;2.97;;;;;;;;;;5029631;28;20377;-67
2023/12/10 01:16:06;;;;;;;17.80;2.87;;;;;;;;;;5030102;28;20671;-67
2023/12/10 01:18:37;;;;;;;22.93;3.33;;;;;;;;;;5032756;28;20147;-67
2023/12/10 01:21:02;;;;;;;23.75;3.17;;;;;;;;;;5031040;28;20041;-67
2023/12/10 01:23:27;;;;;;;17.23;3.00;;;;;;;;;;5032781;28;20429;-67
2023/12/10 01:25:53;;;;;;;20.30;2.60;;;;;;;;;;5030503;28;20043;-67
2023/12/10 01:28:18;;;;;;;23.97;2.97;;;;;;;;;;5031824;28;20716;-67
2023/12/10 01:30:43;;;;;;;18.57;3.70;;;;;;;;;;5031058;28;20033;-66
2023/12/10 01:33:10;;;;;;;20.67;3.07;;;;;;;;;;5034726;28;20068;-66
2023/12/10 01:35:35;;;;;;;28.63;3.20;;;;;;;;;;5033435;28;20037;-67
2023/12/10 01:38:01;;;;;;;23.77;3.30;;;;;;;;;;5034820;28;20037;-67
2023/12/10 01:40:26;;;;;;;19.57;3.13;;;;;;;;;;5035804;28;20044;-68
2023/12/10 01:42:53;;;;;;;27.30;3.00;;;;;;;;;;5030997;28;20470;-67
2023/12/10 01:45:18;;;;;;;15.80;3.00;;;;;;;;;;5032249;28;20029;-67
2023/12/10 01:47:45;;;;;;;20.13;3.30;;;;;;;;;;5034801;28;20048;-67
2023/12/10 01:50:13;;;;;;;12.47;2.33;;;;;;;;;;5033348;28;20136;-67
2023/12/10 01:52:43;;;;;;;27.57;3.10;;;;;;;;;;5031688;28;20039;-67
2023/12/10 01:55:09;;;;;;;20.87;3.03;;;;;;;;;;5035279;28;20616;-65
2023/12/10 01:57:35;;;;;;;18.57;2.83;;;;;;;;;;5035786;28;20040;-64
2023/12/10 02:00:00;;;;;;;27.53;3.50;;;;;;;;;;5034910;28;20028;-65
2023/12/10 02:02:26;;;;;;;18.70;3.23;;;;;;;;;;5035235;28;20079;-65
2023/12/10 02:04:54;;;;;;;22.17;3.17;;;;;;;;;;5028361;28;20040;-64
2023/12/10 02:07:22;;;;;;;22.63;4.07;;;;;;;;;;5032117;28;20377;-64
2023/12/10 02:09:48;;;;;;;17.57;2.60;;;;;;;;;;5035515;28;20533;-64
2023/12/10 02:12:13;;;;;;;20.97;2.80;;;;;;;;;;5033063;28;20180;-64
2023/12/10 02:14:39;;;;;;;18.67;2.70;;;;;;;;;;5030657;28;20369;-65
2023/12/10 02:17:04;;;;;;;15.67;2.90;;;;;;;;;;5031415;28;20385;-64
2023/12/10 02:19:29;;;;;;;19.13;2.60;;;;;;;;;;5034044;28;20039;-64
2023/12/10 02:21:56;;;;;;;26.80;3.70;;;;;;;;;;5017084;28;20041;-64
2023/12/10 02:24:24;;;;;;;18.13;2.50;;;;;;;;;;5028439;28;20506;-64
2023/12/10 02:26:50;;;;;;;21.30;2.60;;;;;;;;;;5032121;28;20075;-64
2023/12/10 02:29:15;;;;;;;18.33;3.40;;;;;;;;;;5035774;28;20424;-64
2023/12/10 02:31:42;;;;;;;27.33;3.83;;;;;;;;;;5035917;28;20123;-65
2023/12/10 02:34:07;;;;;;;18.07;3.47;;;;;;;;;;5032271;28;20037;-65
2023/12/10 02:36:32;;;;;;;15.63;2.53;;;;;;;;;;5032402;28;20056;-65
2023/12/10 02:38:57;;;;;;;23.43;2.73;;;;;;;;;;5034289;28;20098;-65
2023/12/10 02:41:23;;;;;;;17.10;2.83;;;;;;;;;;5034788;28;20028;-63
2023/12/10 02:43:48;;;;;;;22.70;3.20;;;;;;;;;;5031428;28;20539;-65
2023/12/10 02:46:13;;;;;;;15.47;2.30;;;;;;;;;;5035122;28;20120;-65
2023/12/10 02:48:38;;;;;;;22.33;2.90;;;;;;;;;;5035897;28;20433;-64
2023/12/10 02:51:04;;;;;;;15.20;2.50;;;;;;;;;;5039727;28;20061;-65
2023/12/10 02:53:29;;;;;;;14.93;2.40;;;;;;;;;;5037755;28;20038;-63
2023/12/10 02:55:57;;;;;;;19.53;3.00;;;;;;;;;;5034349;28;20043;-63
2023/12/10 02:58:22;;;;;;;19.03;2.57;;;;;;;;;;5033828;28;20037;-63
2023/12/10 03:00:47;;;;;;;18.13;3.37;;;;;;;;;;5034002;28;20040;-63
2023/12/10 03:03:13;;;;;;;19.87;2.50;;;;;;;;;;5032968;28;20128;-64
2023/12/10 03:05:38;;;;;;;22.07;2.53;;;;;;;;;;5034580;28;20032;-66
2023/12/10 03:08:03;;;;;;;18.63;2.60;;;;;;;;;;5035157;28;20029;-66
2023/12/10 03:10:29;;;;;;;23.43;2.53;;;;;;;;;;5036269;28;20059;-66
2023/12/10 03:12:55;;;;;;;19.07;2.10;;;;;;;;;;5028838;28;20029;-66
2023/12/10 03:15:20;;;;;;;23.33;3.73;;;;;;;;;;5034240;28;20122;-66
2023/12/10 03:17:45;;;;;;;15.10;2.87;;;;;;;;;;5033487;28;20497;-67
2023/12/10 03:20:12;;;;;;;9.20;2.17;;;;;;;;;;5031504;28;20044;-66
2023/12/10 03:22:37;;;;;;;21.00;2.90;;;;;;;;;;5030590;28;20521;-67
2023/12/10 03:25:03;;;;;;;16.80;2.83;;;;;;;;;;5033080;28;20029;-66
2023/12/10 03:27:29;;;;;;;17.43;2.60;;;;;;;;;;5036167;28;20029;-66
2023/12/10 03:29:54;;;;;;;24.43;3.63;;;;;;;;;;5032367;28;20076;-66
2023/12/10 03:32:19;;;;;;;17.00;2.67;;;;;;;;;;5034598;28;20531;-65
2023/12/10 03:34:44;;;;;;;19.27;3.17;;;;;;;;;;5034181;28;20686;-66
2023/12/10 03:37:10;;;;;;;13.47;2.27;;;;;;;;;;5031380;28;20021;-66
2023/12/10 03:39:35;;;;;;;14.90;2.47;;;;;;;;;;5037756;28;20417;-66
2023/12/10 03:42:00;;;;;;;17.60;2.63;;;;;;;;;;5031805;28;20056;-66
2023/12/10 03:44:26;;;;;;;22.20;2.77;;;;;;;;;;5030110;28;21555;-67
2023/12/10 03:46:51;;;;;;;15.60;2.40;;;;;;;;;;5033433;28;20164;-66
2023/12/10 03:49:16;;;;;;;14.93;2.97;;;;;;;;;;5031241;28;20318;-66
2023/12/10 03:51:42;;;;;;;14.50;2.43;;;;;;;;;;5034915;28;20042;-67
2023/12/10 03:54:07;;;;;;;13.33;2.13;;;;;;;;;;5035721;28;20045;-66
2023/12/10 03:56:32;;;;;;;16.43;2.43;;;;;;;;;;5033476;28;20037;-66
2023/12/10 03:58:57;;;;;;;16.60;2.20;;;;;;;;;;5035026;28;20048;-67
2023/12/10 04:01:23;;;;;;;10.93;1.97;;;;;;;;;;5036769;28;20540;-66
2023/12/10 04:03:48;;;;;;;14.87;2.57;;;;;;;;;;5035873;28;20029;-66
2023/12/10 04:06:14;;;;;;;12.90;1.90;;;;;;;;;;5036941;28;20490;-67
2023/12/10 04:08:39;;;;;;;18.63;3.03;;;;;;;;;;5033898;28;20029;-66
2023/12/10 04:11:04;;;;;;;12.83;2.13;;;;;;;;;;5032195;28;20048;-65
2023/12/10 04:13:30;;;;;;;16.37;3.20;;;;;;;;;;5038351;28;20545;-66
2023/12/10 04:15:55;;;;;;;12.57;1.90;;;;;;;;;;5035001;28;20044;-65
2023/12/10 04:18:20;;;;;;;14.87;2.80;;;;;;;;;;5035994;28;20033;-63
2023/12/10 04:20:46;;;;;;;15.57;2.80;;;;;;;;;;5036056;28;20029;-63
2023/12/10 04:23:11;;;;;;;16.60;2.30;;;;;;;;;;5031255;28;20076;-65
2023/12/10 04:25:36;;;;;;;18.37;2.70;;;;;;;;;;5037972;28;20084;-64
2023/12/10 04:28:03;;;;;;;8.90;2.00;;;;;;;;;;5027504;28;20040;-65
2023/12/10 04:30:28;;;;;;;18.63;2.67;;;;;;;;;;5034299;28;20029;-64
2023/12/10 04:32:54;;;;;;;17.70;2.77;;;;;;;;;;5032024;28;20034;-64
2023/12/10 04:35:19;;;;;;;12.50;1.53;;;;;;;;;;5037263;28;20351;-64
2023/12/10 04:37:44;;;;;;;20.30;2.93;;;;;;;;;;5035745;28;20033;-64
2023/12/10 04:40:10;;;;;;;9.93;1.60;;;;;;;;;;5030957;28;20071;-64
2023/12/10 04:42:36;;;;;;;13.67;1.90;;;;;;;;;;5031666;28;20385;-63
2023/12/10 04:45:01;;;;;;;10.50;2.17;;;;;;;;;;5033604;28;20033;-63
2023/12/10 04:47:27;;;;;;;10.73;1.40;;;;;;;;;;5035953;28;20037;-64
2023/12/10 04:49:52;;;;;;;12.80;2.00;;;;;;;;;;5031617;28;20025;-65
2023/12/10 04:52:17;;;;;;;20.23;2.10;;;;;;;;;;5029133;28;20132;-65
2023/12/10 04:54:43;;;;;;;15.03;2.43;;;;;;;;;;5031551;28;20522;-64
2023/12/10 04:57:08;;;;;;;19.33;2.90;;;;;;;;;;5030247;28;20042;-64
2023/12/10 04:59:35;;;;;;;10.13;1.57;;;;;;;;;;5033640;28;20025;-64
2023/12/10 05:02:01;;;;;;;13.23;1.93;;;;;;;;;;5032045;28;20029;-63
2023/12/10 05:04:26;;;;;;;15.27;2.07;;;;;;;;;;5036660;28;20091;-64
2023/12/10 05:06:52;;;;;;;5.90;1.30;;;;;;;;;;5031038;28;20108;-64
2023/12/10 05:09:17;;;;;;;9.57;2.00;;;;;;;;;;5040293;28;20436;-64
2023/12/10 05:11:42;;;;;;;13.87;2.80;;;;;;;;;;5036347;28;20072;-64
2023/12/10 05:14:07;;;;;;;9.43;1.90;;;;;;;;;;5039275;28;20028;-63
2023/12/10 05:16:33;;;;;;;10.67;1.80;;;;;;;;;;5038450;28;20366;-63
2023/12/10 05:18:58;;;;;;;13.10;2.23;;;;;;;;;;5036043;28;20041;-64
2023/12/10 05:21:23;;;;;;;8.90;1.30;;;;;;;;;;5037936;28;20671;-64
2023/12/10 05:23:52;;;;;;;14.70;2.60;;;;;;;;;;5036823;28;20040;-65
2023/12/10 05:26:17;;;;;;;10.13;1.63;;;;;;;;;;5038702;28;20050;-69
2023/12/10 05:28:42;;;;;;;4.70;1.17;;;;;;;;;;5038338;28;20101;-67
2023/12/10 05:31:08;;;;;;;10.33;2.00;;;;;;;;;;5033844;28;20029;-68
2023/12/10 05:33:33;;;;;;;12.90;2.57;;;;;;;;;;5039624;28;20017;-69
2023/12/10 05:35:59;;;;;;;10.30;2.00;;;;;;;;;;5035670;28;20582;-68
2023/12/10 05:38:24;;;;;;;12.93;1.80;;;;;;;;;;5032609;28;20041;-68
2023/12/10 05:40:49;;;;;;;10.83;1.73;;;;;;;;;;5042272;28;20188;-68
2023/12/10 05:43:15;;;;;;;18.17;2.00;;;;;;;;;;5030938;28;20096;-67
2023/12/10 05:45:40;;;;;;;12.00;2.10;;;;;;;;;;5037047;28;20029;-67
2023/12/10 05:48:06;;;;;;;11.60;1.83;;;;;;;;;;5030416;28;20412;-66
2023/12/10 05:50:31;;;;;;;10.53;1.87;;;;;;;;;;5031283;28;20033;-67
2023/12/10 05:52:56;;;;;;;7.47;1.53;;;;;;;;;;5033881;28;20025;-67
2023/12/10 05:55:21;;;;;;;12.23;2.20;;;;;;;;;;5035181;28;20470;-67
2023/12/10 05:57:47;;;;;;;13.60;2.10;;;;;;;;;;5040281;28;20444;-67
2023/12/10 06:00:12;;;;;;;7.87;1.80;;;;;;;;;;5034102;28;20029;-67
2023/12/10 06:02:37;;;;;;;11.57;2.20;;;;;;;;;;5034120;28;20025;-67
2023/12/10 06:05:03;;;;;;;9.07;1.80;;;;;;;;;;5038214;28;20028;-68
2023/12/10 06:07:28;;;;;;;13.57;2.33;;;;;;;;;;5036220;28;20268;-68
2023/12/10 06:09:54;;;;;;;8.90;1.67;;;;;;;;;;5036218;28;20029;-67
2023/12/10 06:12:19;;;;;;;7.63;1.97;;;;;;;;;;5038613;28;20670;-68
2023/12/10 06:14:44;;;;;;;19.70;2.33;;;;;;;;;;5036090;28;20094;-66
2023/12/10 06:17:09;;;;;;;13.57;2.20;;;;;;;;;;5035899;28;20060;-69
2023/12/10 06:19:35;;;;;;;9.27;1.77;;;;;;;;;;5038862;28;20037;-65
2023/12/10 06:22:01;;;;;;;11.77;2.17;;;;;;;;;;5036270;28;20033;-66
2023/12/10 06:24:26;;;;;;;12.63;1.90;;;;;;;;;;5039196;28;20105;-67
2023/12/10 06:26:52;;;;;;;13.53;1.90;;;;;;;;;;5037395;28;20034;-66
2023/12/10 06:29:17;;;;;;;12.03;2.10;;;;;;;;;;5037546;28;20029;-67
2023/12/10 06:31:43;;;;;;;14.90;3.07;;;;;;;;;;5038142;28;20135;-68
2023/12/10 06:34:08;;;;;;;7.93;1.83;;;;;;;;;;5033389;28;20371;-66
2023/12/10 06:36:35;;;;;;;9.77;2.00;;;;;;;;;;5036970;28;20105;-66
2023/12/10 06:39:00;;;;;;;9.43;1.47;;;;;;;;;;5036079;28;20029;-68
2023/12/10 06:41:25;;;;;;;19.10;2.90;;;;;;;;;;5035840;28;20034;-67
2023/12/10 06:43:50;;;;;;;13.93;2.10;;;;;;;;;;5037875;28;20370;-67
2023/12/10 06:46:17;;;;;;;12.97;2.23;;;;;;;;;;5033985;28;20039;-64
2023/12/10 06:48:42;;;;;;;11.60;2.00;;;;;;;;;;5034999;28;20452;-64
2023/12/10 06:51:08;;;;;;;7.50;1.33;;;;;;;;;;5036520;28;20109;-64
2023/12/10 06:53:34;;;;;;;9.87;2.00;;;;;;;;;;5035391;28;20068;-64
2023/12/10 06:55:59;;;;;;;7.50;2.00;;;;;;;;;;5035766;28;20124;-63
2023/12/10 06:58:24;;;;;;;10.63;1.93;;;;;;;;;;5029801;28;20442;-63
2023/12/10 07:00:50;;;;;;;13.27;2.60;;;;;;;;;;5033107;28;20033;-64
2023/12/10 07:03:15;;;;;;;9.47;1.83;;;;;;;;;;5033076;28;20034;-64
2023/12/10 07:05:40;;;;;;;12.00;2.10;;;;;;;;;;5036408;28;20496;-63
2023/12/10 07:08:05;;;;;;;12.53;1.97;;;;;;;;;;5034933;28;20033;-64
2023/12/10 07:10:31;;;;;;;9.10;1.70;;;;;;;;;;5035159;28;20040;-64
2023/12/10 07:12:56;;;;;;;14.27;2.00;;;;;;;;;;5033649;28;20541;-65
2023/12/10 07:15:21;;;;;;;14.60;2.03;;;;;;;;;;5038553;28;20041;-64
2023/12/10 07:17:47;;;;;;;7.50;1.47;;;;;;;;;;5036325;28;20108;-64
2023/12/10 07:20:12;;;;;;;8.07;1.70;;;;;;;;;;5035816;28;20498;-64
2023/12/10 07:22:37;;;;;;;12.17;1.97;;;;;;;;;;5039609;28;20063;-64
2023/12/10 07:25:04;;;;;;;9.13;1.50;;;;;;;;;;5037018;28;20076;-64
2023/12/10 07:27:30;;;;;;;7.33;1.80;;;;;;;;;;5037425;28;20033;-63
2023/12/10 07:29:55;;;;;;;5.10;1.53;;;;;;;;;;5037210;28;20052;-65
2023/12/10 07:32:21;;;;;;;10.30;2.33;;;;;;;;;;5034901;28;20034;-64
2023/12/10 07:34:46;;;;;;;12.30;2.37;;;;;;;;;;5036430;28;20634;-66
2023/12/10 07:37:11;;;;;;;13.73;1.97;;;;;;;;;;5040262;28;20808;-64
2023/12/10 07:39:36;;;;;;;8.00;1.70;;;;;;;;;;5034731;28;20034;-64
2023/12/10 07:42:02;;;;;;;10.13;1.87;;;;;;;;;;5035389;28;20041;-64
2023/12/10 07:44:27;;;;;;;9.40;1.83;;;;;;;;;;5032792;28;20029;-64
2023/12/10 07:46:52;;;;;;;8.93;1.80;;;;;;;;;;5035961;28;20116;-64
2023/12/10 07:49:18;;;;;;;8.13;1.60;;;;;;;;;;5030424;28;20521;-65
2023/12/10 07:51:43;;;;;;;9.60;1.60;;;;;;;;;;5035647;28;20070;-64
2023/12/10 07:54:09;;;;;;;11.00;2.10;;;;;;;;;;5030386;28;21135;-65
2023/12/10 07:56:34;;;;;;;13.07;2.10;;;;;;;;;;5032565;28;20056;-65
2023/12/10 07:58:59;;;;;;;14.60;1.90;;;;;;;;;;5033788;28;20051;-63
2023/12/10 08:01:25;;;;;;;10.87;1.83;;;;;;;;;;5037096;28;20044;-65
2023/12/10 08:03:50;;;;;;;12.57;1.97;;;;;;;;;;5038396;28;20036;-66
2023/12/10 08:06:15;;;;;;;11.27;2.00;;;;;;;;;;5028682;28;20125;-65
2023/12/10 08:08:41;;;;;;;9.70;1.93;;;;;;;;;;5027205;28;20061;-64
2023/12/10 08:11:06;;;;;;;10.23;2.20;;;;;;;;;;5039368;28;20048;-66
2023/12/10 08:13:31;;;;;;;0.10;0.10;;;;;;;;;;5032651;28;20045;-65
2023/12/10 08:15:57;;;;;;;2.10;0.43;;;;;;;;;;5034359;28;20045;-66
2023/12/10 08:18:22;;;;;;;0.20;0.20;;;;;;;;;;5030401;28;20413;-66
2023/12/10 08:20:47;;;;;;;0.73;0.60;;;;;;;;;;5038045;28;20506;-64
2023/12/10 08:23:12;;;;;;;0.20;0.20;;;;;;;;;;5036845;28;20056;-63
2023/12/10 08:25:38;;;;;;;0.17;0.17;;;;;;;;;;5037647;28;20035;-64
2023/12/10 08:28:03;;;;;;;0.10;0.10;;;;;;;;;;5037145;28;20052;-63
2023/12/10 08:30:28;;;;;;;1.10;0.77;;;;;;;;;;5034954;28;20113;-64
2023/12/10 08:32:54;;;;;;;0.10;0.10;;;;;;;;;;5034667;28;20052;-65
2023/12/10 08:35:19;;;;;;;0.20;0.20;;;;;;;;;;5035890;28;20045;-64
2023/12/10 08:37:44;;;;;;;0.10;0.10;;;;;;;;;;5033471;28;20342;-65
2023/12/10 08:40:10;;;;;;;0.40;0.40;;;;;;;;;;5035781;28;20634;-64
2023/12/10 08:42:35;;;;;;;0.70;0.70;;;;;;;;;;5035487;28;20048;-63
2023/12/10 08:45:00;;;;;;;0.10;0.10;;;;;;;;;;5040485;28;20032;-64
2023/12/10 08:47:26;;;;;;;0.30;0.30;;;;;;;;;;5037190;28;20044;-64
2023/12/10 08:49:51;;;;;;;0.13;0.13;;;;;;;;;;5037247;28;20510;-64
2023/12/10 08:52:16;;;;;;;0.10;0.10;;;;;;;;;;5036586;28;20026;-65
2023/12/10 08:54:42;;;;;;;0.20;0.20;;;;;;;;;;5035846;28;20825;-67
2023/12/10 08:57:07;;;;;;;0.17;0.17;;;;;;;;;;5034207;28;20034;-65
2023/12/10 08:59:33;;;;;;;0.10;0.10;;;;;;;;;;5034201;28;20061;-64
2023/12/10 09:01:58;;;;;;;0.10;0.10;;;;;;;;;;5040084;28;20040;-65
2023/12/10 09:04:23;;;;;;;0.53;0.23;;;;;;;;;;5018031;28;20075;-64
2023/12/10 09:06:48;;;;;;;0.10;0.10;;;;;;;;;;5031969;28;20341;-66
2023/12/10 09:09:14;;;;;;;0.93;0.67;;;;;;;;;;5036508;28;20375;-65
2023/12/10 09:11:39;;;;;;;0.10;0.10;;;;;;;;;;5037903;28;20477;-66
2023/12/10 09:14:07;;;;;;;0.10;0.10;;;;;;;;;;5036038;28;20120;-65
2023/12/10 09:16:32;;;;;;;0.10;0.10;;;;;;;;;;5029552;28;20528;-67
2023/12/10 09:18:58;;;;;;;0.50;0.50;;;;;;;;;;5038415;28;20022;-64
2023/12/10 09:21:23;;;;;;;0.27;0.27;;;;;;;;;;5039877;28;20026;-64
2023/12/10 09:23:48;;;;;;;0.10;0.10;;;;;;;;;;5037532;28;20463;-67
2023/12/10 09:26:13;;;;;;;0.20;0.20;;;;;;;;;;5034196;28;20065;-64
2023/12/10 09:28:39;;;;;;;0.40;0.40;;;;;;;;;;5040333;28;20029;-66
2023/12/10 09:31:04;;;;;;;0.10;0.10;;;;;;;;;;5039036;28;20494;-65
2023/12/10 09:33:30;;;;;;;0.33;0.33;;;;;;;;;;5039072;28;20394;-66
2023/12/10 09:35:55;;;;;;;6.50;0.53;;;;;;;;;;5039190;28;20120;-65
2023/12/10 09:38:21;;;;;;;0.10;0.10;;;;;;;;;;5036115;28;20108;-64
2023/12/10 09:40:46;;;;;;;0.10;0.10;;;;;;;;;;5037718;28;20124;-65
2023/12/10 09:43:11;;;;;;;0.10;0.10;;;;;;;;;;5036797;28;20036;-65
2023/12/10 09:45:37;;;;;;;0.10;0.10;;;;;;;;;;5034192;28;20048;-65
2023/12/10 09:48:02;;;;;;;0.30;0.30;;;;;;;;;;5038267;28;20065;-67
2023/12/10 09:50:30;;;;;;;0.27;0.27;;;;;;;;;;5036413;28;20120;-66
2023/12/10 09:52:55;;;;;;;0.50;0.27;;;;;;;;;;5033525;28;20104;-66
2023/12/10 09:55:20;;;;;;;0.20;0.20;;;;;;;;;;5036638;28;20470;-65
2023/12/10 09:57:46;;;;;;;0.67;0.50;;;;;;;;;;5035299;28;20040;-67
2023/12/10 10:00:11;;;;;;;0.10;0.10;;;;;;;;;;5034230;28;20282;-66
2023/12/10 10:02:36;;;;;;;0.27;0.27;;;;;;;;;;5038308;28;20038;-68
2023/12/10 10:05:03;;;;;;;0.93;0.63;;;;;;;;;;5033555;28;20104;-66
2023/12/10 10:07:29;;;;;;;0.10;0.10;;;;;;;;;;5034333;28;20152;-66
2023/12/10 10:09:54;;;;;;;0.60;0.43;;;;;;;;;;5038792;28;20052;-66
2023/12/10 10:12:19;;;;;;;0.10;0.10;;;;;;;;;;5035331;28;20029;-66
2023/12/10 10:14:55;;;;;;;0.17;0.17;;;;;;;;;;5030130;28;20107;-67
2023/12/10 10:17:27;;;;;;;0.10;0.10;;;;;;;;;;5036847;28;20037;-63
2023/12/10 10:19:52;;;;;;;;;;;;;;;;;;5037497;28;20056;-64
2023/12/10 10:22:17;;;;;;;3.63;0.95;;;;;;;;;;5037593;28;20254;-64
2023/12/10 10:24:43;;;;;;;0.30;0.30;;;;;;;;;;5032955;28;20017;-65
2023/12/10 10:27:08;;;;;;;0.10;0.10;;;;;;;;;;5032780;28;20034;-65
2023/12/10 10:29:33;;;;;;;0.10;0.10;;;;;;;;;;5039045;28;20037;-64
2023/12/10 10:31:59;;;;;;;0.23;0.23;;;;;;;;;;5034936;28;20112;-65
2023/12/10 10:34:24;;;;;;;0.10;0.10;;;;;;;;;;5031589;28;20429;-65
2023/12/10 10:36:51;;;;;;;6.00;1.80;;;;;;;;;;5037431;28;20435;-64
2023/12/10 10:39:16;;;;;;;1.47;0.83;;;;;;;;;;5037920;28;20510;-64
2023/12/10 10:41:42;;;;;;;1.33;0.83;;;;;;;;;;5037533;28;20057;-65
2023/12/10 10:44:07;;;;;;;0.53;0.53;;;;;;;;;;5035393;28;20045;-65
2023/12/10 10:46:32;;;;;;;1.33;0.97;;;;;;;;;;5034804;28;20032;-65
2023/12/10 10:48:59;;;;;;;0.30;0.30;;;;;;;;;;5036080;28;20029;-64
2023/12/10 10:51:26;;;;;;;0.10;0.10;;;;;;;;;;5034412;28;20381;-64
2023/12/10 10:53:56;;;;;;;0.57;0.40;;;;;;;;;;5020089;28;20067;-65
2023/12/10 10:56:22;;;;;;;0.30;0.30;;;;;;;;;;5036265;28;20033;-64
2023/12/10 10:58:47;;;;;;;2.10;0.47;;;;;;;;;;5034567;28;20041;-64
2023/12/10 11:01:45;;;;;;;0.87;0.67;;;;;;;;;;5033566;28;20072;-67
2023/12/10 11:04:15;;;;;;;5.20;0.53;;;;;;;;;;4995979;28;20033;-65
2023/12/10 11:06:40;;;;;;;0.10;0.10;;;;;;;;;;5035839;28;20021;-64
2023/12/10 11:09:06;;;;;;;0.50;0.50;;;;;;;;;;5034611;28;20029;-65
2023/12/10 11:11:36;;;;;;;7.20;1.00;;;;;;;;;;5035684;28;20032;-64
2023/12/10 11:14:03;;;;;;;1.27;1.10;;;;;;;;;;5034615;28;20385;-63
2023/12/10 11:16:32;;;;;;;0.13;0.13;;;;;;;;;;5036387;28;20505;-63
2023/12/10 11:18:58;;;;;;;2.33;0.97;;;;;;;;;;5034158;28;20040;-64
2023/12/10 11:21:24;;;;;;;0.43;0.40;;;;;;;;;;5033875;28;20033;-64
2023/12/10 11:23:49;;;;;;;4.93;0.57;;;;;;;;;;5034989;28;20029;-64
2023/12/10 11:26:15;;;;;;;0.20;0.20;;;;;;;;;;5040545;28;20091;-64
2023/12/10 11:28:41;;;;;;;0.30;0.30;;;;;;;;;;5034906;28;20025;-65
2023/12/10 11:31:06;;;;;;;1.73;0.83;;;;;;;;;;5031958;28;20045;-63
2023/12/10 11:33:31;;;;;;;7.53;1.63;;;;;;;;;;5028048;28;20128;-63
2023/12/10 11:35:57;;;;;;;5.80;1.60;;;;;;;;;;5035168;28;20048;-63
2023/12/10 11:38:22;;;;;;;12.40;2.83;;;;;;;;;;5035007;28;20025;-64
2023/12/10 11:40:48;;;;;;;6.40;2.30;;;;;;;;;;5035028;28;20060;-65
2023/12/10 11:43:13;;;;;;;6.67;2.00;;;;;;;;;;5016836;28;20056;-65
2023/12/10 11:45:39;;;;;;;7.33;2.30;;;;;;;;;;5029327;28;20060;-64
2023/12/10 11:48:04;;;;;;;9.97;2.40;;;;;;;;;;5033100;28;20507;-63
2023/12/10 11:50:36;;;;;;;8.10;2.10;;;;;;;;;;5032214;28;20103;-64
2023/12/10 11:53:02;;;;;;;13.73;2.80;;;;;;;;;;5029504;28;20041;-63
2023/12/10 11:55:27;;;;;;;12.17;3.43;;;;;;;;;;5028772;28;20797;-63
2023/12/10 11:57:55;;;;;;;13.40;3.10;;;;;;;;;;5033853;28;20060;-64
2023/12/10 12:00:20;;;;;;;13.73;3.30;;;;;;;;;;5031443;28;20036;-64
2023/12/10 12:02:46;;;;;;;11.80;2.97;;;;;;;;;;5032507;28;20095;-63
2023/12/10 12:05:13;;;;;;;16.13;3.30;;;;;;;;;;5032539;28;20037;-64
2023/12/10 12:07:39;;;;;;;13.67;2.70;;;;;;;;;;5030979;28;20802;-64
2023/12/10 12:10:05;;;;;;;11.97;2.67;;;;;;;;;;5032057;28;20033;-63
2023/12/10 12:12:31;;;;;;;9.67;2.10;;;;;;;;;;5032002;28;20032;-64
2023/12/10 12:14:56;;;;;;;7.17;2.20;;;;;;;;;;5031665;28;20048;-65
2023/12/10 12:17:22;;;;;;;10.07;2.87;;;;;;;;;;5029086;28;20035;-64
2023/12/10 12:19:47;;;;;;;12.40;2.30;;;;;;;;;;5029099;28;20040;-65
2023/12/10 12:22:12;;;;;;;13.70;3.00;;;;;;;;;;5028581;28;20051;-64
2023/12/10 12:24:39;;;;;;;7.97;1.80;;;;;;;;;;5033987;28;20033;-64
2023/12/10 12:27:05;;;;;;;9.10;2.30;;;;;;;;;;5033287;28;20041;-63
2023/12/10 12:29:31;;;;;;;15.83;3.83;;;;;;;;;;5028087;28;20033;-63
2023/12/10 12:31:56;;;;;;;10.40;2.37;;;;;;;;;;5028227;28;20090;-64
2023/12/10 12:34:21;;;;;;;16.77;3.47;;;;;;;;;;5032679;28;20071;-63
2023/12/10 12:36:46;;;;;;;14.67;2.60;;;;;;;;;;5029486;28;20040;-64
2023/12/10 12:39:12;;;;;;;17.63;2.83;;;;;;;;;;5027619;28;20493;-66
2023/12/10 12:41:37;;;;;;;16.60;2.93;;;;;;;;;;5029869;28;20036;-66
2023/12/10 12:44:03;;;;;;;13.80;2.50;;;;;;;;;;5027407;28;20038;-66
2023/12/10 12:46:28;;;;;;;20.57;3.93;;;;;;;;;;5031129;28;20488;-66
2023/12/10 12:48:53;;;;;;;19.20;2.97;;;;;;;;;;5027532;28;20061;-66
2023/12/10 12:51:18;;;;;;;14.07;2.90;;;;;;;;;;5028127;28;20034;-67
2023/12/10 12:53:44;;;;;;;13.70;2.43;;;;;;;;;;5029373;28;20037;-67
2023/12/10 12:56:09;;;;;;;13.30;2.13;;;;;;;;;;5031814;28;20416;-66
2023/12/10 12:58:34;;;;;;;14.27;2.57;;;;;;;;;;5030493;28;20036;-66
2023/12/10 13:00:59;;;;;;;9.80;2.17;;;;;;;;;;5031336;28;20051;-66
2023/12/10 13:03:25;;;;;;;19.43;2.67;;;;;;;;;;5028583;28;20036;-66
2023/12/10 13:05:50;;;;;;;14.97;2.13;;;;;;;;;;5029594;28;20473;-66
2023/12/10 13:08:15;;;;;;;15.10;2.50;;;;;;;;;;5030761;28;20450;-66
2023/12/10 13:10:41;;;;;;;15.13;2.70;;;;;;;;;;5029075;28;20116;-66
2023/12/10 13:13:06;;;;;;;10.77;2.27;;;;;;;;;;5030898;28;20029;-66
2023/12/10 13:15:32;;;;;;;12.17;2.90;;;;;;;;;;5028523;28;20069;-67
2023/12/10 13:17:57;;;;;;;13.17;2.37;;;;;;;;;;5028325;28;20178;-67
2023/12/10 13:20:22;;;;;;;9.00;1.90;;;;;;;;;;5031071;28;20471;-66
2023/12/10 13:22:48;;;;;;;16.30;2.73;;;;;;;;;;5028660;28;20034;-65
2023/12/10 13:25:13;;;;;;;8.77;1.70;;;;;;;;;;5029746;28;20040;-67
2023/12/10 13:27:38;;;;;;;18.07;2.70;;;;;;;;;;5031241;28;20028;-67
2023/12/10 13:30:04;;;;;;;13.70;2.90;;;;;;;;;;5029231;28;20036;-67
2023/12/10 13:32:29;;;;;;;16.73;2.73;;;;;;;;;;5033624;28;20033;-67
2023/12/10 13:34:55;;;;;;;11.10;3.03;;;;;;;;;;5034619;28;20066;-66
2023/12/10 13:37:20;;;;;;;16.57;3.17;;;;;;;;;;5032953;28;20385;-68
2023/12/10 13:39:45;;;;;;;11.27;2.70;;;;;;;;;;5030949;28;20028;-67
2023/12/10 13:42:11;;;;;;;14.90;2.17;;;;;;;;;;5033272;28;20059;-67
2023/12/10 13:44:36;;;;;;;10.37;2.20;;;;;;;;;;5037437;28;20029;-68
2023/12/10 13:47:01;;;;;;;13.40;2.10;;;;;;;;;;5033647;28;20060;-66
2023/12/10 13:49:26;;;;;;;11.23;2.60;;;;;;;;;;5029981;28;20704;-68
2023/12/10 13:51:52;;;;;;;9.10;1.67;;;;;;;;;;5028071;28;20041;-67
2023/12/10 13:54:17;;;;;;;11.60;3.37;;;;;;;;;;5035146;28;20120;-67
2023/12/10 13:56:43;;;;;;;8.97;1.80;;;;;;;;;;5034134;28;20037;-67
2023/12/10 13:59:08;;;;;;;11.13;2.30;;;;;;;;;;5034206;28;20725;-68
2023/12/10 14:01:35;;;;;;;14.37;2.70;;;;;;;;;;5030009;28;20072;-67
2023/12/10 14:04:00;;;;;;;15.87;3.30;;;;;;;;;;5034543;28;20721;-67
2023/12/10 14:06:25;;;;;;;7.53;1.90;;;;;;;;;;5032413;28;20036;-68
2023/12/10 14:08:51;;;;;;;20.37;2.87;;;;;;;;;;5031525;28;20037;-67
2023/12/10 14:11:16;;;;;;;12.70;3.20;;;;;;;;;;5029228;28;20052;-67
2023/12/10 14:13:42;;;;;;;12.83;2.40;;;;;;;;;;5034378;28;20421;-66
2023/12/10 14:16:08;;;;;;;10.87;2.40;;;;;;;;;;5033530;28;20129;-68
2023/12/10 14:18:33;;;;;;;12.13;2.33;;;;;;;;;;5033440;28;20040;-67
2023/12/10 14:20:58;;;;;;;18.67;3.30;;;;;;;;;;5032395;28;20048;-68
2023/12/10 14:23:24;;;;;;;14.47;2.50;;;;;;;;;;5032601;28;20485;-69
2023/12/10 14:25:50;;;;;;;14.73;2.87;;;;;;;;;;5036216;28;20592;-68